createdAt,value
2018-05-08T00:00:30.360Z,76.20
2018-05-08T00:01:30.605Z,76.33
2018-05-08T00:02:30.846Z,76.39
2018-05-08T00:03:31.088Z,76.48
2018-05-08T00:04:31.330Z,76.48
2018-05-08T00:05:31.569Z,76.48
2018-05-08T00:06:31.811Z,77.72
2018-05-08T00:07:32.054Z,77.53
2018-05-08T00:08:32.295Z,78.30
2018-05-08T00:09:32.535Z,78.67
2018-05-08T00:10:32.776Z,78.58
2018-05-08T00:11:33.021Z,77.95
2018-05-08T00:12:33.259Z,76.52
2018-05-08T00:13:33.502Z,75.95
2018-05-08T00:14:33.743Z,74.90
2018-05-08T00:15:33.985Z,75.13
2018-05-08T00:16:34.228Z,74.37
2018-05-08T00:17:34.469Z,74.55
2018-05-08T00:18:34.709Z,74.55
2018-05-08T00:19:34.951Z,74.17
2018-05-08T00:20:35.195Z,74.37
2018-05-08T00:21:35.439Z,74.37
2018-05-08T00:22:35.677Z,74.65
2018-05-08T00:23:35.922Z,75.13
2018-05-08T00:24:36.162Z,75.60
2018-05-08T00:25:36.403Z,75.03
2018-05-08T00:26:36.642Z,74.84
2018-05-08T00:27:36.887Z,75.42
2018-05-08T00:28:37.128Z,75.60
2018-05-08T00:29:37.370Z,75.98
2018-05-08T00:30:37.611Z,75.57
2018-05-08T00:31:37.854Z,76.23
2018-05-08T00:32:38.094Z,76.52
2018-05-08T00:33:38.334Z,76.90
2018-05-08T00:34:38.570Z,77.38
2018-05-08T00:35:38.810Z,77.28
2018-05-08T00:36:39.049Z,78.05
2018-05-08T00:37:39.291Z,78.05
2018-05-08T00:38:39.533Z,78.20
2018-05-08T00:39:39.775Z,78.77
2018-05-08T00:40:40.021Z,79.06
2018-05-08T00:41:40.257Z,78.30
2018-05-08T00:42:40.497Z,79.15
2018-05-08T00:43:40.751Z,79.15
2018-05-08T00:44:40.983Z,78.30
2018-05-08T00:45:41.223Z,78.58
2018-05-08T00:46:41.464Z,78.20
2018-05-08T00:47:41.702Z,79.06
2018-05-08T00:48:41.941Z,78.96
2018-05-08T00:49:42.181Z,79.15
2018-05-08T00:50:42.425Z,79.15
2018-05-08T00:51:42.666Z,78.30
2018-05-08T00:52:42.906Z,78.86
2018-05-08T00:53:43.149Z,78.49
2018-05-08T00:54:43.388Z,78.20
2018-05-08T00:55:43.634Z,78.49
2018-05-08T00:56:43.879Z,79.72
2018-05-08T00:57:44.117Z,80.58
2018-05-08T00:58:44.359Z,81.06
2018-05-08T00:59:44.612Z,80.87
2018-05-08T01:00:44.841Z,81.25
2018-05-08T01:01:45.080Z,81.54
2018-05-08T01:02:45.323Z,82.01
2018-05-08T01:03:45.566Z,82.11
2018-05-08T01:04:45.803Z,81.44
2018-05-08T01:05:46.047Z,81.63
2018-05-08T01:06:46.287Z,81.15
2018-05-08T01:07:46.537Z,80.01
2018-05-08T01:08:46.765Z,78.86
2018-05-08T01:09:47.014Z,79.25
2018-05-08T01:10:47.246Z,78.49
2018-05-08T01:11:47.488Z,77.67
2018-05-08T01:12:47.729Z,78.23
2018-05-08T01:13:47.968Z,77.95
2018-05-08T01:14:48.208Z,78.14
2018-05-08T01:15:48.449Z,77.76
2018-05-08T01:16:48.692Z,78.23
2018-05-08T01:17:48.930Z,79.06
2018-05-08T01:18:49.168Z,79.53
2018-05-08T01:19:49.414Z,80.11
2018-05-08T01:20:49.655Z,80.77
2018-05-08T01:21:49.895Z,80.87
2018-05-08T01:22:50.139Z,80.96
2018-05-08T01:23:50.380Z,81.15
2018-05-08T01:24:50.621Z,82.01
2018-05-08T01:25:50.860Z,81.44
2018-05-08T01:26:51.097Z,81.25
2018-05-08T01:27:51.338Z,81.25
2018-05-08T01:28:51.578Z,81.35
2018-05-08T01:29:51.896Z,82.01
2018-05-08T01:30:52.061Z,82.01
2018-05-08T01:31:52.305Z,82.01
2018-05-08T01:32:52.547Z,82.97
2018-05-08T01:33:52.792Z,82.64
2018-05-08T01:34:53.028Z,82.68
2018-05-08T01:35:53.270Z,82.26
2018-05-08T01:36:53.508Z,82.35
2018-05-08T01:37:53.752Z,82.64
2018-05-08T01:38:53.993Z,82.64
2018-05-08T01:39:54.240Z,82.83
2018-05-08T01:40:54.475Z,82.83
2018-05-08T01:41:54.720Z,82.54
2018-05-08T01:42:54.958Z,82.64
2018-05-08T01:43:55.198Z,82.64
2018-05-08T01:44:55.447Z,83.12
2018-05-08T01:45:55.677Z,82.54
2018-05-08T01:46:55.915Z,82.73
2018-05-08T01:47:56.155Z,82.35
2018-05-08T01:48:56.396Z,83.02
2018-05-08T01:49:56.637Z,82.64
2018-05-08T01:50:56.880Z,82.64
2018-05-08T01:51:57.121Z,82.83
2018-05-08T01:52:57.360Z,83.02
2018-05-08T01:53:57.600Z,83.31
2018-05-08T01:54:57.840Z,83.59
2018-05-08T01:55:58.083Z,84.31
2018-05-08T01:56:58.321Z,84.74
2018-05-08T01:57:58.560Z,85.17
2018-05-08T01:58:58.801Z,85.08
2018-05-08T01:59:59.040Z,85.08
2018-05-08T02:00:59.279Z,84.79
2018-05-08T02:01:59.519Z,85.36
2018-05-08T02:02:59.762Z,85.55
2018-05-08T02:04:00.002Z,85.17
2018-05-08T02:05:00.241Z,85.17
2018-05-08T02:06:00.483Z,86.60
2018-05-08T02:07:00.723Z,86.32
2018-05-08T02:08:00.973Z,86.32
2018-05-08T02:09:01.201Z,86.79
2018-05-08T02:10:01.443Z,87.27
2018-05-08T02:11:01.683Z,87.36
2018-05-08T02:12:01.923Z,87.46
2018-05-08T02:13:02.164Z,87.46
2018-05-08T02:14:02.406Z,87.46
2018-05-08T02:15:02.643Z,87.55
2018-05-08T02:16:02.885Z,86.98
2018-05-08T02:17:03.123Z,87.27
2018-05-08T02:18:03.365Z,87.07
2018-05-08T02:19:03.607Z,87.46
2018-05-08T02:20:03.846Z,86.51
2018-05-08T02:21:04.086Z,86.41
2018-05-08T02:22:04.331Z,86.41
2018-05-08T02:23:04.566Z,86.22
2018-05-08T02:24:04.806Z,86.51
2018-05-08T02:25:05.048Z,86.32
2018-05-08T02:26:05.289Z,86.51
2018-05-08T02:27:05.534Z,85.93
2018-05-08T02:28:05.773Z,86.60
2018-05-08T02:29:06.011Z,86.88
2018-05-08T02:30:06.253Z,86.60
2018-05-08T02:31:06.492Z,86.69
2018-05-08T02:32:06.733Z,86.69
2018-05-08T02:33:06.975Z,87.07
2018-05-08T02:34:07.219Z,87.74
2018-05-08T02:35:07.472Z,88.03
2018-05-08T02:36:07.696Z,87.46
2018-05-08T02:37:07.939Z,88.03
2018-05-08T02:38:08.177Z,87.51
2018-05-08T02:39:08.417Z,87.79
2018-05-08T02:40:08.658Z,87.70
2018-05-08T02:41:08.894Z,87.98
2018-05-08T02:42:09.136Z,88.37
2018-05-08T02:43:09.379Z,87.98
2018-05-08T02:44:09.618Z,88.27
2018-05-08T02:45:09.855Z,89.03
2018-05-08T02:46:10.093Z,89.51
2018-05-08T02:47:10.332Z,90.46
2018-05-08T02:48:10.571Z,90.22
2018-05-08T02:49:10.812Z,90.03
2018-05-08T02:50:11.054Z,90.70
2018-05-08T02:51:11.294Z,90.51
2018-05-08T02:52:11.533Z,91.08
2018-05-08T02:53:11.776Z,90.61
2018-05-08T02:54:12.016Z,91.56
2018-05-08T02:55:12.257Z,91.46
2018-05-08T02:56:12.498Z,91.27
2018-05-08T02:57:12.734Z,90.70
2018-05-08T02:58:12.971Z,90.99
2018-05-08T02:59:13.213Z,90.22
2018-05-08T03:00:13.454Z,90.89
2018-05-08T03:01:13.695Z,90.32
2018-05-08T03:02:13.930Z,91.37
2018-05-08T03:03:14.177Z,90.89
2018-05-08T03:04:14.406Z,91.08
2018-05-08T03:05:14.655Z,90.51
2018-05-08T03:06:14.890Z,90.22
2018-05-08T03:07:15.133Z,90.51
2018-05-08T03:08:15.371Z,90.80
2018-05-08T03:09:15.612Z,90.51
2018-05-08T03:10:15.851Z,89.94
2018-05-08T03:11:16.093Z,90.32
2018-05-08T03:12:16.332Z,90.13
2018-05-08T03:13:16.571Z,90.27
2018-05-08T03:14:16.807Z,89.51
2018-05-08T03:15:17.050Z,88.65
2018-05-08T03:16:17.290Z,88.93
2018-05-08T03:17:17.527Z,88.56
2018-05-08T03:18:17.765Z,88.08
2018-05-08T03:19:18.003Z,89.03
2018-05-08T03:20:18.243Z,89.13
2018-05-08T03:21:18.481Z,89.51
2018-05-08T03:22:18.742Z,89.51
2018-05-08T03:23:18.961Z,90.08
2018-05-08T03:24:19.200Z,90.51
2018-05-08T03:25:19.443Z,90.61
2018-05-08T03:26:19.677Z,90.80
2018-05-08T03:27:19.919Z,91.46
2018-05-08T03:28:20.158Z,91.56
2018-05-08T03:29:20.397Z,91.65
2018-05-08T03:30:20.641Z,91.79
2018-05-08T03:31:20.890Z,91.46
2018-05-08T03:32:21.121Z,91.37
2018-05-08T03:33:21.347Z,91.37
2018-05-08T03:34:21.587Z,91.46
2018-05-08T03:35:31.623Z,91.65
2018-05-08T03:36:22.291Z,91.17
2018-05-08T03:37:29.274Z,91.65
2018-05-08T03:38:22.859Z,91.46
2018-05-08T03:39:23.092Z,91.41
2018-05-08T03:40:23.353Z,90.94
2018-05-08T03:41:32.233Z,90.94
2018-05-08T03:42:23.954Z,91.22
2018-05-08T03:43:24.179Z,90.46
2018-05-08T03:44:24.430Z,90.56
2018-05-08T03:45:24.673Z,90.36
2018-05-08T03:46:24.917Z,90.17
2018-05-08T03:47:25.170Z,89.61
2018-05-08T03:48:25.368Z,89.32
2018-05-08T03:49:25.613Z,89.32
2018-05-08T03:50:25.846Z,89.13
2018-05-08T03:51:26.085Z,89.22
2018-05-08T03:52:26.325Z,89.13
2018-05-08T03:53:26.573Z,88.65
2018-05-08T03:54:26.806Z,88.65
2018-05-08T03:55:27.046Z,89.03
2018-05-08T03:56:27.283Z,88.93
2018-05-08T03:57:27.599Z,88.93
2018-05-08T03:58:35.395Z,89.13
2018-05-08T03:59:28.055Z,89.32
2018-05-08T04:00:28.339Z,89.32
2018-05-08T04:01:28.528Z,89.61
2018-05-08T04:02:28.764Z,89.61
2018-05-08T04:03:29.007Z,89.32
2018-05-08T04:04:29.236Z,89.32
2018-05-08T04:05:29.478Z,89.13
2018-05-08T04:06:29.714Z,88.93
2018-05-08T04:07:29.961Z,89.22
2018-05-08T04:08:30.206Z,88.93
2018-05-08T04:09:30.430Z,89.03
2018-05-08T04:10:30.672Z,89.22
2018-05-08T04:11:30.928Z,88.93
2018-05-08T04:12:31.151Z,88.84
2018-05-08T04:13:31.419Z,88.75
2018-05-08T04:14:31.627Z,88.84
2018-05-08T04:15:31.874Z,88.89
2018-05-08T04:16:32.099Z,88.08
2018-05-08T04:17:32.335Z,88.37
2018-05-08T04:18:40.252Z,88.18
2018-05-08T04:19:32.872Z,88.46
2018-05-08T04:20:33.106Z,88.37
2018-05-08T04:21:33.356Z,88.93
2018-05-08T04:22:33.589Z,88.56
2018-05-08T04:23:33.827Z,88.65
2018-05-08T04:24:34.048Z,88.46
2018-05-08T04:25:34.297Z,88.37
2018-05-08T04:26:42.169Z,88.56
2018-05-08T04:27:34.849Z,88.75
2018-05-08T04:28:35.076Z,88.37
2018-05-08T04:29:35.316Z,88.18
2018-05-08T04:30:35.557Z,87.98
2018-05-08T04:31:35.800Z,89.13
2018-05-08T04:32:36.084Z,88.84
2018-05-08T04:33:36.267Z,88.75
2018-05-08T04:34:36.510Z,89.13
2018-05-08T04:35:36.751Z,89.03
2018-05-08T04:36:37.042Z,88.98
2018-05-08T04:37:37.263Z,89.03
2018-05-08T04:38:37.471Z,87.84
2018-05-08T04:39:37.708Z,88.31
2018-05-08T04:40:37.945Z,88.12
2018-05-08T04:41:38.181Z,88.41
2018-05-08T04:42:38.426Z,88.41
2018-05-08T04:43:38.658Z,87.93
2018-05-08T04:44:38.906Z,88.22
2018-05-08T04:45:39.148Z,88.03
2018-05-08T04:46:39.386Z,88.22
2018-05-08T04:47:39.619Z,88.22
2018-05-08T04:48:39.859Z,88.22
2018-05-08T04:49:40.111Z,87.74
2018-05-08T04:50:40.343Z,87.65
2018-05-08T04:51:40.586Z,87.27
2018-05-08T04:52:40.824Z,87.46
2018-05-08T04:53:41.067Z,87.55
2018-05-08T04:54:41.300Z,87.55
2018-05-08T04:55:41.536Z,86.93
2018-05-08T04:56:41.775Z,87.21
2018-05-08T04:57:42.018Z,87.12
2018-05-08T04:58:42.251Z,86.93
2018-05-08T04:59:42.499Z,86.55
2018-05-08T05:00:42.744Z,86.36
2018-05-08T05:01:42.986Z,85.88
2018-05-08T05:02:43.240Z,85.60
2018-05-08T05:03:43.469Z,85.41
2018-05-08T05:04:43.711Z,85.50
2018-05-08T05:05:43.943Z,85.02
2018-05-08T05:06:44.194Z,85.02
2018-05-08T05:07:44.434Z,84.92
2018-05-08T05:08:44.675Z,84.26
2018-05-08T05:09:44.914Z,83.73
2018-05-08T05:10:45.155Z,83.44
2018-05-08T05:11:45.397Z,83.16
2018-05-08T05:12:45.632Z,83.06
2018-05-08T05:13:45.875Z,83.06
2018-05-08T05:14:46.116Z,82.78
2018-05-08T05:15:46.358Z,82.59
2018-05-08T05:16:46.651Z,82.78
2018-05-08T05:17:46.839Z,81.77
2018-05-08T05:18:47.080Z,81.29
2018-05-08T05:19:47.426Z,81.29
2018-05-08T05:20:47.672Z,81.29
2018-05-08T05:21:47.911Z,81.38
2018-05-08T05:22:48.155Z,81.01
2018-05-08T05:23:48.395Z,80.91
2018-05-08T05:24:48.641Z,81.58
2018-05-08T05:25:48.881Z,82.95
2018-05-08T05:26:49.120Z,82.82
2018-05-08T05:27:49.367Z,82.82
2018-05-08T05:28:49.618Z,82.67
2018-05-08T05:29:49.851Z,82.67
2018-05-08T05:30:50.093Z,82.09
2018-05-08T05:31:50.334Z,82.09
2018-05-08T05:32:50.579Z,82.19
2018-05-08T05:33:50.817Z,82.86
2018-05-08T05:34:51.060Z,83.14
2018-05-08T05:35:51.298Z,82.76
2018-05-08T05:36:51.541Z,82.95
2018-05-08T05:37:51.778Z,83.24
2018-05-08T05:38:52.020Z,82.95
2018-05-08T05:39:52.263Z,83.95
2018-05-08T05:40:52.501Z,82.71
2018-05-08T05:41:52.745Z,83.00
2018-05-08T05:42:52.984Z,83.09
2018-05-08T05:43:53.227Z,81.66
2018-05-08T05:44:53.475Z,81.27
2018-05-08T05:45:53.719Z,81.14
2018-05-08T05:46:53.963Z,82.32
2018-05-08T05:47:54.200Z,81.56
2018-05-08T05:48:54.442Z,83.28
2018-05-08T05:49:54.685Z,82.81
2018-05-08T05:50:54.925Z,83.00
2018-05-08T05:51:55.166Z,81.66
2018-05-08T05:52:55.411Z,81.56
2018-05-08T05:53:55.654Z,81.66
2018-05-08T05:54:55.895Z,81.70
2018-05-08T05:55:56.137Z,80.07
2018-05-08T05:56:56.381Z,80.17
2018-05-08T05:57:56.619Z,80.07
2018-05-08T05:58:56.862Z,79.88
2018-05-08T05:59:57.112Z,79.50
2018-05-08T06:00:57.348Z,77.97
2018-05-08T06:01:57.592Z,77.50
2018-05-08T06:02:57.831Z,76.92
2018-05-08T06:03:58.075Z,77.63
2018-05-08T06:04:58.318Z,77.25
2018-05-08T06:05:58.559Z,76.86
2018-05-08T06:06:58.805Z,76.67
2018-05-08T06:07:59.046Z,75.52
2018-05-08T06:08:59.292Z,75.24
2018-05-08T06:09:59.534Z,75.05
2018-05-08T06:10:59.777Z,76.77
2018-05-08T06:12:00.072Z,76.77
2018-05-08T06:13:00.262Z,77.72
2018-05-08T06:14:00.506Z,78.11
2018-05-08T06:15:00.746Z,76.77
2018-05-08T06:16:00.993Z,78.11
2018-05-08T06:17:01.233Z,77.25
2018-05-08T06:18:01.483Z,78.20
2018-05-08T06:19:01.713Z,77.92
2018-05-08T06:20:01.975Z,80.02
2018-05-08T06:21:02.191Z,77.72
2018-05-08T06:22:02.436Z,77.82
2018-05-08T06:23:02.678Z,78.97
2018-05-08T06:24:02.919Z,78.87
2018-05-08T06:25:03.161Z,79.44
2018-05-08T06:26:03.403Z,79.39
2018-05-08T06:27:03.643Z,77.95
2018-05-08T06:28:03.882Z,78.81
2018-05-08T06:29:04.124Z,77.76
2018-05-08T06:30:04.370Z,76.71
2018-05-08T06:31:04.610Z,76.84
2018-05-08T06:32:04.854Z,76.46
2018-05-08T06:33:05.096Z,76.75
2018-05-08T06:34:05.339Z,76.02
2018-05-08T06:35:05.583Z,76.21
2018-05-08T06:36:05.817Z,76.50
2018-05-08T06:37:06.065Z,74.68
2018-05-08T06:38:06.301Z,75.26
2018-05-08T06:39:06.544Z,76.25
2018-05-08T06:40:06.845Z,73.28
2018-05-08T06:41:07.024Z,70.31
2018-05-08T06:42:07.269Z,69.93
2018-05-08T06:43:07.506Z,70.41
2018-05-08T06:44:07.756Z,71.40
2018-05-08T06:45:08.001Z,69.77
2018-05-08T06:46:08.235Z,67.57
2018-05-08T06:47:08.476Z,69.81
2018-05-08T06:48:08.720Z,69.13
2018-05-08T06:49:08.967Z,66.35
2018-05-08T06:50:09.195Z,66.64
2018-05-08T06:51:09.450Z,68.27
2018-05-08T06:52:09.696Z,67.66
2018-05-08T06:53:09.941Z,65.88
2018-05-08T06:54:10.183Z,66.06
2018-05-08T06:55:10.431Z,66.19
2018-05-08T06:56:10.679Z,64.79
2018-05-08T06:57:10.922Z,63.12
2018-05-08T06:58:11.165Z,59.79
2018-05-08T06:59:11.411Z,54.75
2018-05-08T07:00:11.647Z,56.58
2018-05-08T07:01:11.893Z,55.23
2018-05-08T07:02:12.148Z,55.16
2018-05-08T07:03:12.394Z,54.56
2018-05-08T07:04:12.640Z,54.08
2018-05-08T07:05:12.883Z,55.81
2018-05-08T07:06:13.132Z,54.78
2018-05-08T07:07:13.376Z,53.94
2018-05-08T07:08:13.621Z,52.13
2018-05-08T07:09:13.947Z,50.42
2018-05-08T07:10:14.108Z,49.73
2018-05-08T07:11:14.357Z,51.53
2018-05-08T07:12:14.600Z,52.87
2018-05-08T07:13:14.855Z,51.94
2018-05-08T07:14:15.094Z,48.93
2018-05-08T07:15:15.346Z,47.89
2018-05-08T07:16:15.686Z,45.74
2018-05-08T07:17:15.842Z,43.47
2018-05-08T07:18:16.083Z,43.80
2018-05-08T07:19:16.329Z,41.74
2018-05-08T07:20:16.581Z,39.84
2018-05-08T07:21:16.821Z,38.50
2018-05-08T07:22:17.070Z,40.75
2018-05-08T07:23:17.316Z,38.78
2018-05-08T07:24:17.567Z,37.45
2018-05-08T07:25:17.818Z,35.53
2018-05-08T07:26:18.068Z,34.77
2018-05-08T07:27:18.318Z,35.06
2018-05-08T07:28:18.564Z,38.25
2018-05-08T07:29:18.817Z,39.24
2018-05-08T07:30:19.065Z,36.36
2018-05-08T07:31:19.318Z,35.41
2018-05-08T07:32:19.566Z,35.14
2018-05-08T07:33:19.815Z,34.66
2018-05-08T07:34:20.062Z,35.30
2018-05-08T07:35:20.314Z,36.66
2018-05-08T07:36:20.566Z,35.49
2018-05-08T07:37:20.816Z,35.88
2018-05-08T07:38:21.155Z,35.28
2018-05-08T07:39:21.309Z,36.62
2018-05-08T07:40:21.560Z,36.43
2018-05-08T07:41:21.811Z,37.59
2018-05-08T07:42:22.056Z,36.64
2018-05-08T07:43:22.307Z,36.56
2018-05-08T07:44:22.559Z,36.85
2018-05-08T07:45:22.875Z,36.10
2018-05-08T07:46:23.061Z,35.90
2018-05-08T07:47:23.312Z,35.72
2018-05-08T07:48:23.565Z,35.59
2018-05-08T07:49:23.817Z,33.78
2018-05-08T07:50:24.069Z,34.08
2018-05-08T07:51:24.322Z,33.43
2018-05-08T07:52:24.573Z,35.24
2018-05-08T07:53:24.829Z,35.74
2018-05-08T07:54:25.078Z,35.00
2018-05-08T07:55:25.337Z,33.25
2018-05-08T07:56:25.581Z,33.46
2018-05-08T07:57:25.836Z,33.62
2018-05-08T07:58:26.087Z,33.15
2018-05-08T07:59:26.342Z,32.10
2018-05-08T08:00:26.595Z,31.64
2018-05-08T08:01:26.847Z,32.02
2018-05-08T08:02:27.098Z,30.94
2018-05-08T08:03:27.461Z,33.62
2018-05-08T08:04:27.607Z,34.11
2018-05-08T08:05:27.860Z,33.65
2018-05-08T08:06:28.113Z,32.89
2018-05-08T08:07:28.423Z,30.75
2018-05-08T08:08:28.618Z,31.61
2018-05-08T08:09:28.873Z,33.07
2018-05-08T08:10:29.122Z,32.39
2018-05-08T08:11:29.375Z,30.74
2018-05-08T08:12:29.640Z,31.82
2018-05-08T08:13:29.882Z,32.91
2018-05-08T08:14:30.135Z,32.21
2018-05-08T08:15:30.390Z,32.11
2018-05-08T08:16:30.643Z,33.28
2018-05-08T08:17:30.900Z,31.84
2018-05-08T08:18:31.193Z,30.58
2018-05-08T08:19:31.394Z,30.68
2018-05-08T08:20:31.649Z,30.76
2018-05-08T08:21:31.900Z,34.56
2018-05-08T08:22:32.153Z,33.83
2018-05-08T08:23:32.409Z,32.20
2018-05-08T08:24:32.660Z,32.00
2018-05-08T08:25:32.917Z,31.71
2018-05-08T08:26:33.167Z,31.60
2018-05-08T08:27:33.425Z,30.72
2018-05-08T08:28:33.679Z,31.71
2018-05-08T08:29:33.936Z,31.54
2018-05-08T08:30:34.190Z,31.16
2018-05-08T08:31:34.443Z,28.92
2018-05-08T08:32:34.697Z,31.48
2018-05-08T08:33:34.953Z,30.41
2018-05-08T08:34:35.207Z,29.52
2018-05-08T08:35:35.506Z,31.54
2018-05-08T08:36:35.715Z,31.64
2018-05-08T08:37:35.970Z,30.96
2018-05-08T08:38:36.224Z,32.42
2018-05-08T08:39:36.482Z,32.21
2018-05-08T08:40:36.733Z,33.02
2018-05-08T08:41:36.992Z,33.31
2018-05-08T08:42:37.247Z,32.71
2018-05-08T08:43:37.499Z,32.03
2018-05-08T08:44:37.757Z,32.42
2018-05-08T08:45:38.010Z,31.57
2018-05-08T08:46:38.281Z,31.66
2018-05-08T08:47:38.575Z,31.66
2018-05-08T08:48:38.777Z,31.66
2018-05-08T08:49:39.033Z,32.18
2018-05-08T08:50:39.283Z,36.91
2018-05-08T08:51:39.537Z,37.12
2018-05-08T08:52:39.789Z,35.00
2018-05-08T08:53:40.048Z,34.72
2018-05-08T08:54:40.301Z,33.20
2018-05-08T08:55:40.558Z,31.85
2018-05-08T08:56:40.814Z,31.77
2018-05-08T08:57:41.067Z,30.70
2018-05-08T08:58:41.320Z,31.56
2018-05-08T08:59:41.574Z,30.80
2018-05-08T09:00:41.838Z,32.43
2018-05-08T09:01:42.090Z,31.38
2018-05-08T09:02:42.344Z,31.27
2018-05-08T09:03:42.597Z,31.28
2018-05-08T09:04:42.852Z,31.98
2018-05-08T09:05:43.107Z,30.81
2018-05-08T09:06:43.359Z,29.82
2018-05-08T09:07:43.618Z,30.90
2018-05-08T09:08:43.873Z,32.42
2018-05-08T09:09:44.127Z,31.64
2018-05-08T09:10:44.382Z,32.81
2018-05-08T09:11:44.639Z,30.99
2018-05-08T09:12:44.895Z,29.54
2018-05-08T09:13:45.152Z,29.54
2018-05-08T09:14:45.407Z,29.07
2018-05-08T09:15:45.663Z,29.18
2018-05-08T09:16:45.928Z,29.08
2018-05-08T09:17:46.172Z,29.56
2018-05-08T09:18:46.429Z,31.79
2018-05-08T09:19:46.704Z,31.98
2018-05-08T09:20:46.958Z,31.88
2018-05-08T09:21:47.195Z,31.87
2018-05-08T09:22:47.450Z,29.85
2018-05-08T09:23:47.708Z,29.95
2018-05-08T09:24:47.962Z,30.03
2018-05-08T09:25:48.220Z,31.48
2018-05-08T09:26:48.474Z,29.57
2018-05-08T09:27:48.750Z,29.67
2018-05-08T09:28:48.986Z,29.74
2018-05-08T09:29:49.245Z,29.56
2018-05-08T09:30:49.502Z,29.77
2018-05-08T09:31:49.757Z,28.43
2018-05-08T09:32:50.083Z,26.98
2018-05-08T09:33:50.276Z,27.36
2018-05-08T09:34:50.531Z,28.71
2018-05-08T09:35:50.787Z,29.88
2018-05-08T09:36:51.047Z,29.20
2018-05-08T09:37:51.299Z,25.96
2018-05-08T09:38:51.553Z,27.15
2018-05-08T09:39:51.809Z,28.89
2018-05-08T09:40:52.084Z,29.72
2018-05-08T09:41:52.322Z,30.00
2018-05-08T09:42:52.579Z,29.72
2018-05-08T09:43:52.836Z,28.99
2018-05-08T09:44:53.084Z,28.69
2018-05-08T09:45:53.338Z,29.18
2018-05-08T09:46:53.594Z,28.29
2018-05-08T09:47:53.851Z,29.93
2018-05-08T09:48:54.198Z,32.03
2018-05-08T09:49:54.364Z,32.00
2018-05-08T09:50:54.624Z,31.27
2018-05-08T09:51:54.882Z,31.73
2018-05-08T09:52:55.140Z,29.92
2018-05-08T09:53:55.394Z,29.04
2018-05-08T09:54:55.652Z,28.65
2018-05-08T09:55:55.913Z,28.88
2018-05-08T09:56:56.167Z,26.18
2018-05-08T09:57:56.425Z,24.54
2018-05-08T09:58:56.680Z,24.57
2018-05-08T09:59:56.941Z,23.21
2018-05-08T10:00:57.268Z,25.34
2018-05-08T10:01:57.453Z,27.26
2018-05-08T10:02:57.712Z,29.00
2018-05-08T10:03:57.969Z,28.81
2018-05-08T10:04:58.226Z,25.99
2018-05-08T10:05:58.482Z,25.23
2018-05-08T10:06:58.740Z,22.72
2018-05-08T10:07:58.998Z,24.15
2018-05-08T10:08:59.256Z,23.97
2018-05-08T10:09:59.511Z,22.92
2018-05-08T10:10:59.771Z,21.95
2018-05-08T10:12:00.034Z,23.21
2018-05-08T10:13:00.287Z,23.02
2018-05-08T10:14:00.544Z,22.55
2018-05-08T10:15:00.801Z,22.44
2018-05-08T10:16:01.062Z,23.97
2018-05-08T10:17:01.318Z,23.47
2018-05-08T10:18:01.579Z,24.53
2018-05-08T10:19:01.836Z,25.15
2018-05-08T10:20:02.093Z,29.33
2018-05-08T10:21:02.355Z,28.71
2018-05-08T10:22:02.610Z,26.78
2018-05-08T10:23:02.869Z,26.29
2018-05-08T10:24:03.128Z,25.34
2018-05-08T10:25:03.386Z,25.55
2018-05-08T10:26:03.647Z,23.87
2018-05-08T10:27:03.907Z,25.99
2018-05-08T10:28:04.168Z,26.78
2018-05-08T10:29:04.427Z,29.63
2018-05-08T10:30:04.684Z,30.02
2018-05-08T10:31:04.943Z,29.07
2018-05-08T10:32:05.201Z,29.39
2018-05-08T10:33:05.516Z,28.13
2018-05-08T10:34:05.743Z,28.71
2018-05-08T10:35:05.972Z,28.14
2018-05-08T10:36:06.235Z,29.59
2018-05-08T10:37:06.542Z,30.37
2018-05-08T10:38:06.801Z,27.73
2018-05-08T10:39:07.064Z,27.34
2018-05-08T10:40:07.316Z,27.34
2018-05-08T10:41:07.574Z,25.51
2018-05-08T10:42:07.831Z,26.99
2018-05-08T10:43:08.090Z,27.09
2018-05-08T10:44:08.346Z,26.59
2018-05-08T10:45:08.607Z,28.90
2018-05-08T10:46:08.861Z,34.11
2018-05-08T10:47:09.123Z,33.09
2018-05-08T10:48:09.379Z,31.10
2018-05-08T10:49:09.636Z,26.45
2018-05-08T10:50:09.908Z,26.48
2018-05-08T10:51:10.157Z,26.07
2018-05-08T10:52:10.411Z,26.63
2018-05-08T10:53:10.673Z,27.15
2018-05-08T10:54:10.931Z,25.60
2018-05-08T10:55:11.184Z,25.81
2018-05-08T10:56:11.619Z,26.89
2018-05-08T10:57:11.708Z,24.44
2018-05-08T10:58:12.094Z,24.05
2018-05-08T10:59:12.275Z,23.59
2018-05-08T11:00:12.545Z,23.02
2018-05-08T11:01:12.781Z,22.75
2018-05-08T11:02:13.037Z,22.56
2018-05-08T11:03:13.313Z,24.87
2018-05-08T11:04:13.620Z,25.35
2018-05-08T11:05:13.839Z,26.49
2018-05-08T11:06:14.090Z,25.23
2018-05-08T11:07:14.374Z,26.60
2018-05-08T11:08:14.632Z,28.15
2018-05-08T11:09:14.899Z,24.74
2018-05-08T11:10:15.217Z,25.51
2018-05-08T11:11:15.510Z,26.38
2018-05-08T11:12:15.788Z,28.63
2018-05-08T11:13:16.181Z,26.98
2018-05-08T11:14:16.464Z,29.18
2018-05-08T11:15:16.754Z,27.15
2018-05-08T11:16:17.035Z,27.95
2018-05-08T11:17:17.476Z,26.39
2018-05-08T11:18:17.825Z,26.77
2018-05-08T11:19:18.111Z,26.70
2018-05-08T11:20:18.554Z,23.38
2018-05-08T11:21:18.579Z,24.74
2018-05-08T11:22:18.829Z,25.02
2018-05-08T11:23:19.097Z,25.05
2018-05-08T11:24:19.384Z,23.60
2018-05-08T11:25:19.641Z,23.13
2018-05-08T11:26:19.923Z,22.47
2018-05-08T11:27:20.186Z,22.35
2018-05-08T11:28:20.430Z,26.50
2018-05-08T11:29:20.766Z,26.31
2018-05-08T11:30:21.064Z,25.32
2018-05-08T11:31:21.310Z,25.05
2018-05-08T11:32:21.610Z,25.34
2018-05-08T11:33:21.852Z,23.42
2018-05-08T11:34:22.116Z,22.06
2018-05-08T11:35:22.382Z,21.76
2018-05-08T11:36:22.633Z,21.66
2018-05-08T11:37:22.883Z,22.03
2018-05-08T11:38:23.186Z,23.41
2018-05-08T11:39:23.476Z,22.23
2018-05-08T11:40:23.646Z,23.59
2018-05-08T11:41:23.896Z,24.27
2018-05-08T11:42:24.137Z,23.20
2018-05-08T11:43:24.445Z,23.21
2018-05-08T11:44:24.675Z,22.34
2018-05-08T11:45:24.935Z,23.31
2018-05-08T11:46:25.193Z,27.22
2018-05-08T11:47:25.589Z,24.04
2018-05-08T11:48:25.839Z,24.07
2018-05-08T11:49:26.098Z,23.30
2018-05-08T11:50:26.371Z,23.11
2018-05-08T11:51:26.597Z,22.94
2018-05-08T11:52:26.907Z,20.01
2018-05-08T11:53:27.170Z,20.62
2018-05-08T11:54:27.455Z,20.32
2018-05-08T11:55:27.768Z,20.43
2018-05-08T11:56:28.070Z,19.96
2018-05-08T11:57:28.349Z,19.96
2018-05-08T11:58:28.602Z,20.80
2018-05-08T11:59:28.863Z,22.09
2018-05-08T12:00:29.311Z,21.69
2018-05-08T12:01:29.390Z,21.69
2018-05-08T12:02:29.743Z,22.38
2018-05-08T12:03:30.067Z,20.54
2018-05-08T12:04:30.346Z,20.81
2018-05-08T12:05:30.654Z,20.72
2018-05-08T12:06:30.909Z,21.86
2018-05-08T12:07:31.208Z,21.77
2018-05-08T12:08:31.446Z,21.77
2018-05-08T12:09:31.711Z,21.55
2018-05-08T12:10:31.988Z,22.03
2018-05-08T12:11:32.275Z,23.71
2018-05-08T12:12:32.529Z,24.09
2018-05-08T12:13:32.834Z,22.44
2018-05-08T12:14:33.181Z,25.20
2018-05-08T12:15:33.357Z,22.84
2018-05-08T12:16:33.603Z,22.42
2018-05-08T12:17:33.904Z,22.13
2018-05-08T12:18:34.220Z,23.69
2018-05-08T12:19:34.459Z,25.26
2018-05-08T12:20:34.738Z,22.42
2018-05-08T12:21:34.995Z,23.30
2018-05-08T12:22:35.243Z,22.51
2018-05-08T12:23:35.503Z,22.98
2018-05-08T12:24:35.759Z,23.85
2018-05-08T12:25:36.099Z,23.07
2018-05-08T12:26:36.271Z,22.49
2018-05-08T12:27:36.528Z,22.49
2018-05-08T12:28:36.791Z,22.02
2018-05-08T12:29:37.045Z,20.67
2018-05-08T12:30:37.361Z,20.88
2018-05-08T12:31:37.561Z,18.44
2018-05-08T12:32:37.824Z,18.07
2018-05-08T12:33:38.083Z,17.49
2018-05-08T12:34:38.336Z,17.49
2018-05-08T12:35:38.594Z,18.17
2018-05-08T12:36:38.855Z,19.06
2018-05-08T12:37:39.115Z,17.96
2018-05-08T12:38:39.375Z,18.65
2018-05-08T12:39:39.632Z,17.69
2018-05-08T12:40:39.883Z,17.29
2018-05-08T12:41:40.141Z,17.59
2018-05-08T12:42:40.399Z,16.90
2018-05-08T12:43:40.658Z,17.55
2018-05-08T12:44:40.918Z,18.83
2018-05-08T12:45:41.175Z,19.30
2018-05-08T12:46:41.436Z,18.73
2018-05-08T12:47:41.695Z,17.57
2018-05-08T12:48:41.954Z,17.29
2018-05-08T12:49:42.215Z,17.59
2018-05-08T12:50:42.477Z,17.88
2018-05-08T12:51:42.730Z,18.64
2018-05-08T12:52:42.994Z,18.33
2018-05-08T12:53:43.249Z,17.84
2018-05-08T12:54:43.510Z,19.02
2018-05-08T12:55:43.766Z,19.69